sensor_id;sensor_type;location;lat;lon;timestamp;P1;durP1;ratioP1;P2;durP2;ratioP2
15669;SDS011;18524;45.190;5.732;2023-02-03T00:02:38;13.17;;;8.00;;
15669;SDS011;18524;45.190;5.732;2023-02-03T00:07:29;13.87;;;8.60;;
15669;SDS011;18524;45.190;5.732;2023-02-03T00:12:19;13.40;;;7.67;;
15669;SDS011;18524;45.190;5.732;2023-02-03T00:17:10;10.13;;;7.27;;
15669;SDS011;18524;45.190;5.732;2023-02-03T00:22:00;14.30;;;8.30;;
15669;SDS011;18524;45.190;5.732;2023-02-03T00:26:50;12.30;;;7.50;;
15669;SDS011;18524;45.190;5.732;2023-02-03T00:31:41;12.23;;;7.90;;
15669;SDS011;18524;45.190;5.732;2023-02-03T00:36:31;13.87;;;8.17;;
15669;SDS011;18524;45.190;5.732;2023-02-03T00:41:22;12.40;;;7.13;;
15669;SDS011;18524;45.190;5.732;2023-02-03T00:46:12;12.07;;;7.60;;
15669;SDS011;18524;45.190;5.732;2023-02-03T00:51:03;12.90;;;7.50;;
15669;SDS011;18524;45.190;5.732;2023-02-03T00:55:54;13.63;;;6.90;;
15669;SDS011;18524;45.190;5.732;2023-02-03T01:00:44;12.90;;;7.97;;
15669;SDS011;18524;45.190;5.732;2023-02-03T01:05:35;12.50;;;7.93;;
15669;SDS011;18524;45.190;5.732;2023-02-03T01:10:26;14.57;;;8.67;;
15669;SDS011;18524;45.190;5.732;2023-02-03T01:15:17;16.87;;;9.23;;
15669;SDS011;18524;45.190;5.732;2023-02-03T01:20:07;14.10;;;9.27;;
15669;SDS011;18524;45.190;5.732;2023-02-03T01:25:01;16.27;;;9.30;;
15669;SDS011;18524;45.190;5.732;2023-02-03T01:29:51;16.27;;;9.37;;
15669;SDS011;18524;45.190;5.732;2023-02-03T01:34:42;14.07;;;9.10;;
15669;SDS011;18524;45.190;5.732;2023-02-03T01:39:32;13.30;;;8.20;;
15669;SDS011;18524;45.190;5.732;2023-02-03T01:49:37;11.40;;;8.40;;
15669;SDS011;18524;45.190;5.732;2023-02-03T01:54:34;14.27;;;8.90;;
15669;SDS011;18524;45.190;5.732;2023-02-03T01:59:30;16.20;;;9.43;;
15669;SDS011;18524;45.190;5.732;2023-02-03T02:04:24;15.07;;;9.70;;
15669;SDS011;18524;45.190;5.732;2023-02-03T02:09:18;15.53;;;9.30;;
15669;SDS011;18524;45.190;5.732;2023-02-03T02:14:08;15.30;;;9.33;;
15669;SDS011;18524;45.190;5.732;2023-02-03T02:40:23;12.70;;;8.57;;
15669;SDS011;18524;45.190;5.732;2023-02-03T02:50:45;13.97;;;9.40;;
15669;SDS011;18524;45.190;5.732;2023-02-03T02:55:39;16.47;;;10.10;;
15669;SDS011;18524;45.190;5.732;2023-02-03T03:00:33;13.47;;;9.50;;
15669;SDS011;18524;45.190;5.732;2023-02-03T03:05:25;15.07;;;8.80;;
15669;SDS011;18524;45.190;5.732;2023-02-03T03:10:18;15.03;;;8.70;;
15669;SDS011;18524;45.190;5.732;2023-02-03T03:15:13;12.93;;;9.20;;
15669;SDS011;18524;45.190;5.732;2023-02-03T03:20:12;15.00;;;8.53;;
15669;SDS011;18524;45.190;5.732;2023-02-03T03:25:15;14.47;;;9.27;;
15669;SDS011;18524;45.190;5.732;2023-02-03T03:30:08;16.23;;;10.27;;
15669;SDS011;18524;45.190;5.732;2023-02-03T03:35:03;14.60;;;9.50;;
15669;SDS011;18524;45.190;5.732;2023-02-03T03:39:59;16.90;;;10.00;;
15669;SDS011;18524;45.190;5.732;2023-02-03T03:49:52;16.27;;;10.97;;
15669;SDS011;18524;45.190;5.732;2023-02-03T03:54:46;17.07;;;10.57;;
15669;SDS011;18524;45.190;5.732;2023-02-03T03:59:38;17.13;;;10.33;;
15669;SDS011;18524;45.190;5.732;2023-02-03T04:04:33;15.97;;;10.43;;
15669;SDS011;18524;45.190;5.732;2023-02-03T04:09:26;16.80;;;9.97;;
15669;SDS011;18524;45.190;5.732;2023-02-03T04:14:16;16.23;;;10.53;;
15669;SDS011;18524;45.190;5.732;2023-02-03T04:19:07;16.47;;;10.50;;
15669;SDS011;18524;45.190;5.732;2023-02-03T04:23:57;15.87;;;10.37;;
15669;SDS011;18524;45.190;5.732;2023-02-03T04:28:47;15.27;;;9.70;;
15669;SDS011;18524;45.190;5.732;2023-02-03T04:33:38;17.23;;;10.23;;
15669;SDS011;18524;45.190;5.732;2023-02-03T04:38:28;17.77;;;10.40;;
15669;SDS011;18524;45.190;5.732;2023-02-03T04:43:19;17.67;;;10.33;;
15669;SDS011;18524;45.190;5.732;2023-02-03T04:48:09;14.40;;;10.07;;
15669;SDS011;18524;45.190;5.732;2023-02-03T04:53:00;17.80;;;9.93;;
15669;SDS011;18524;45.190;5.732;2023-02-03T04:57:54;15.30;;;9.13;;
15669;SDS011;18524;45.190;5.732;2023-02-03T05:02:45;15.77;;;9.70;;
15669;SDS011;18524;45.190;5.732;2023-02-03T05:07:35;16.37;;;9.73;;
15669;SDS011;18524;45.190;5.732;2023-02-03T05:12:25;16.47;;;10.37;;
15669;SDS011;18524;45.190;5.732;2023-02-03T05:17:16;15.80;;;9.30;;
15669;SDS011;18524;45.190;5.732;2023-02-03T05:22:06;15.30;;;9.50;;
15669;SDS011;18524;45.190;5.732;2023-02-03T05:26:56;16.20;;;9.80;;
15669;SDS011;18524;45.190;5.732;2023-02-03T05:31:47;15.90;;;9.77;;
15669;SDS011;18524;45.190;5.732;2023-02-03T05:36:37;13.77;;;8.67;;
15669;SDS011;18524;45.190;5.732;2023-02-03T05:41:27;14.67;;;8.70;;
15669;SDS011;18524;45.190;5.732;2023-02-03T05:46:36;13.70;;;8.80;;
15669;SDS011;18524;45.190;5.732;2023-02-03T05:51:27;14.17;;;9.10;;
15669;SDS011;18524;45.190;5.732;2023-02-03T05:56:17;16.07;;;9.47;;
15669;SDS011;18524;45.190;5.732;2023-02-03T06:01:08;15.47;;;9.87;;
15669;SDS011;18524;45.190;5.732;2023-02-03T06:05:58;15.23;;;9.57;;
15669;SDS011;18524;45.190;5.732;2023-02-03T06:10:48;15.10;;;10.27;;
15669;SDS011;18524;45.190;5.732;2023-02-03T06:15:39;16.23;;;10.03;;
15669;SDS011;18524;45.190;5.732;2023-02-03T06:20:30;16.93;;;10.80;;
15669;SDS011;18524;45.190;5.732;2023-02-03T06:25:20;16.67;;;10.83;;
15669;SDS011;18524;45.190;5.732;2023-02-03T06:30:10;14.73;;;9.73;;
15669;SDS011;18524;45.190;5.732;2023-02-03T06:35:01;14.03;;;9.70;;
15669;SDS011;18524;45.190;5.732;2023-02-03T06:39:52;14.87;;;9.07;;
15669;SDS011;18524;45.190;5.732;2023-02-03T06:44:42;15.63;;;9.20;;
15669;SDS011;18524;45.190;5.732;2023-02-03T06:49:33;15.57;;;8.57;;
15669;SDS011;18524;45.190;5.732;2023-02-03T06:54:23;12.37;;;8.67;;
15669;SDS011;18524;45.190;5.732;2023-02-03T06:59:14;13.80;;;8.47;;
15669;SDS011;18524;45.190;5.732;2023-02-03T07:04:04;13.47;;;8.47;;
15669;SDS011;18524;45.190;5.732;2023-02-03T07:08:55;14.43;;;8.80;;
15669;SDS011;18524;45.190;5.732;2023-02-03T07:13:46;15.40;;;9.43;;
15669;SDS011;18524;45.190;5.732;2023-02-03T07:18:37;14.70;;;9.93;;
15669;SDS011;18524;45.190;5.732;2023-02-03T07:23:27;13.83;;;9.20;;
15669;SDS011;18524;45.190;5.732;2023-02-03T07:28:17;15.23;;;10.23;;
15669;SDS011;18524;45.190;5.732;2023-02-03T07:33:08;15.73;;;10.30;;
15669;SDS011;18524;45.190;5.732;2023-02-03T07:37:58;22.27;;;10.00;;
15669;SDS011;18524;45.190;5.732;2023-02-03T07:42:48;15.70;;;9.37;;
15669;SDS011;18524;45.190;5.732;2023-02-03T07:47:39;16.43;;;9.33;;
15669;SDS011;18524;45.190;5.732;2023-02-03T07:52:30;16.03;;;10.00;;
15669;SDS011;18524;45.190;5.732;2023-02-03T07:57:21;17.93;;;10.50;;
15669;SDS011;18524;45.190;5.732;2023-02-03T08:02:11;16.93;;;10.70;;
15669;SDS011;18524;45.190;5.732;2023-02-03T08:07:02;15.00;;;10.73;;
15669;SDS011;18524;45.190;5.732;2023-02-03T08:11:52;18.80;;;10.47;;
15669;SDS011;18524;45.190;5.732;2023-02-03T08:16:43;16.87;;;11.03;;
15669;SDS011;18524;45.190;5.732;2023-02-03T08:21:33;17.80;;;10.70;;
15669;SDS011;18524;45.190;5.732;2023-02-03T08:26:23;18.57;;;11.10;;
15669;SDS011;18524;45.190;5.732;2023-02-03T08:31:14;17.27;;;10.90;;
15669;SDS011;18524;45.190;5.732;2023-02-03T08:36:05;16.43;;;10.67;;
15669;SDS011;18524;45.190;5.732;2023-02-03T08:40:56;16.57;;;11.30;;
15669;SDS011;18524;45.190;5.732;2023-02-03T08:45:46;16.83;;;11.20;;
15669;SDS011;18524;45.190;5.732;2023-02-03T08:50:36;18.87;;;11.87;;
15669;SDS011;18524;45.190;5.732;2023-02-03T08:55:27;17.13;;;12.17;;
15669;SDS011;18524;45.190;5.732;2023-02-03T09:00:17;18.07;;;12.20;;
15669;SDS011;18524;45.190;5.732;2023-02-03T09:05:08;16.03;;;12.27;;
15669;SDS011;18524;45.190;5.732;2023-02-03T09:09:59;17.67;;;12.00;;
15669;SDS011;18524;45.190;5.732;2023-02-03T09:14:49;17.63;;;12.03;;
15669;SDS011;18524;45.190;5.732;2023-02-03T09:19:40;17.27;;;11.73;;
15669;SDS011;18524;45.190;5.732;2023-02-03T09:24:30;17.77;;;12.00;;
15669;SDS011;18524;45.190;5.732;2023-02-03T09:29:22;19.20;;;11.83;;
15669;SDS011;18524;45.190;5.732;2023-02-03T09:34:12;15.43;;;11.00;;
15669;SDS011;18524;45.190;5.732;2023-02-03T09:39:03;18.03;;;11.23;;
15669;SDS011;18524;45.190;5.732;2023-02-03T09:48:48;15.27;;;10.80;;
15669;SDS011;18524;45.190;5.732;2023-02-03T09:53:44;14.13;;;10.73;;
15669;SDS011;18524;45.190;5.732;2023-02-03T09:58:39;17.10;;;10.63;;
15669;SDS011;18524;45.190;5.732;2023-02-03T10:03:37;14.60;;;10.57;;
15669;SDS011;18524;45.190;5.732;2023-02-03T10:18:49;17.90;;;11.43;;
15669;SDS011;18524;45.190;5.732;2023-02-03T10:23:43;15.10;;;11.33;;
15669;SDS011;18524;45.190;5.732;2023-02-03T10:28:37;15.63;;;11.13;;
15669;SDS011;18524;45.190;5.732;2023-02-03T10:33:30;13.93;;;10.20;;
15669;SDS011;18524;45.190;5.732;2023-02-03T10:38:27;15.53;;;10.50;;
15669;SDS011;18524;45.190;5.732;2023-02-03T10:43:22;15.53;;;10.90;;
15669;SDS011;18524;45.190;5.732;2023-02-03T10:48:30;16.57;;;11.70;;
15669;SDS011;18524;45.190;5.732;2023-02-03T10:53:34;15.43;;;11.37;;
15669;SDS011;18524;45.190;5.732;2023-02-03T10:58:26;16.57;;;11.40;;
15669;SDS011;18524;45.190;5.732;2023-02-03T11:08:15;17.60;;;11.93;;
15669;SDS011;18524;45.190;5.732;2023-02-03T11:13:10;11.27;;;9.37;;
15669;SDS011;18524;45.190;5.732;2023-02-03T11:18:00;10.60;;;8.80;;
15669;SDS011;18524;45.190;5.732;2023-02-03T11:22:51;14.33;;;9.37;;
15669;SDS011;18524;45.190;5.732;2023-02-03T11:27:41;10.17;;;7.33;;
15669;SDS011;18524;45.190;5.732;2023-02-03T11:32:34;9.93;;;7.70;;
15669;SDS011;18524;45.190;5.732;2023-02-03T11:37:36;9.60;;;7.43;;
15669;SDS011;18524;45.190;5.732;2023-02-03T11:42:28;10.57;;;7.23;;
15669;SDS011;18524;45.190;5.732;2023-02-03T11:47:18;10.60;;;7.60;;
15669;SDS011;18524;45.190;5.732;2023-02-03T11:52:34;12.23;;;7.87;;
15669;SDS011;18524;45.190;5.732;2023-02-03T11:57:44;10.03;;;7.93;;
15669;SDS011;18524;45.190;5.732;2023-02-03T12:12:50;12.90;;;9.13;;
15669;SDS011;18524;45.190;5.732;2023-02-03T12:33:12;13.77;;;8.50;;
15669;SDS011;18524;45.190;5.732;2023-02-03T12:43:16;10.50;;;7.80;;
15669;SDS011;18524;45.190;5.732;2023-02-03T12:48:39;11.33;;;8.20;;
15669;SDS011;18524;45.190;5.732;2023-02-03T12:53:38;11.07;;;8.83;;
15669;SDS011;18524;45.190;5.732;2023-02-03T12:58:34;12.57;;;8.43;;
15669;SDS011;18524;45.190;5.732;2023-02-03T13:08:33;11.83;;;7.90;;
15669;SDS011;18524;45.190;5.732;2023-02-03T13:13:31;16.87;;;9.00;;
15669;SDS011;18524;45.190;5.732;2023-02-03T13:18:26;12.17;;;7.73;;
15669;SDS011;18524;45.190;5.732;2023-02-03T13:23:21;13.90;;;8.70;;
15669;SDS011;18524;45.190;5.732;2023-02-03T13:28:32;24.63;;;9.03;;
15669;SDS011;18524;45.190;5.732;2023-02-03T13:38:37;11.40;;;8.07;;
15669;SDS011;18524;45.190;5.732;2023-02-03T13:43:49;11.90;;;7.50;;
15669;SDS011;18524;45.190;5.732;2023-02-03T13:48:42;10.37;;;7.43;;
15669;SDS011;18524;45.190;5.732;2023-02-03T13:53:36;13.07;;;7.40;;
15669;SDS011;18524;45.190;5.732;2023-02-03T13:58:30;11.47;;;7.23;;
15669;SDS011;18524;45.190;5.732;2023-02-03T14:13:19;12.80;;;7.30;;
15669;SDS011;18524;45.190;5.732;2023-02-03T14:18:29;11.20;;;7.67;;
15669;SDS011;18524;45.190;5.732;2023-02-03T14:23:27;10.80;;;7.70;;
15669;SDS011;18524;45.190;5.732;2023-02-03T14:38:37;15.97;;;9.67;;
15669;SDS011;18524;45.190;5.732;2023-02-03T14:43:30;13.77;;;10.00;;
15669;SDS011;18524;45.190;5.732;2023-02-03T14:58:42;10.60;;;8.27;;
15669;SDS011;18524;45.190;5.732;2023-02-03T15:03:35;13.83;;;8.13;;
15669;SDS011;18524;45.190;5.732;2023-02-03T15:08:41;11.23;;;7.43;;
15669;SDS011;18524;45.190;5.732;2023-02-03T15:13:32;9.77;;;6.37;;
15669;SDS011;18524;45.190;5.732;2023-02-03T15:23:23;13.63;;;6.70;;
15669;SDS011;18524;45.190;5.732;2023-02-03T15:28:28;9.37;;;6.73;;
15669;SDS011;18524;45.190;5.732;2023-02-03T15:33:19;9.37;;;5.53;;
15669;SDS011;18524;45.190;5.732;2023-02-03T15:38:16;10.13;;;5.90;;
15669;SDS011;18524;45.190;5.732;2023-02-03T15:43:16;8.67;;;5.50;;
15669;SDS011;18524;45.190;5.732;2023-02-03T15:53:09;7.37;;;5.80;;
15669;SDS011;18524;45.190;5.732;2023-02-03T15:58:11;10.03;;;6.13;;
15669;SDS011;18524;45.190;5.732;2023-02-03T16:03:46;8.03;;;5.37;;
15669;SDS011;18524;45.190;5.732;2023-02-03T16:08:42;9.60;;;5.07;;
15669;SDS011;18524;45.190;5.732;2023-02-03T16:13:41;8.83;;;5.50;;
15669;SDS011;18524;45.190;5.732;2023-02-03T16:18:33;9.57;;;5.60;;
15669;SDS011;18524;45.190;5.732;2023-02-03T16:23:25;8.13;;;6.30;;
15669;SDS011;18524;45.190;5.732;2023-02-03T16:28:18;10.67;;;6.00;;
15669;SDS011;18524;45.190;5.732;2023-02-03T16:33:30;11.20;;;6.83;;
15669;SDS011;18524;45.190;5.732;2023-02-03T16:38:44;11.43;;;6.20;;
15669;SDS011;18524;45.190;5.732;2023-02-03T16:43:53;9.37;;;6.33;;
15669;SDS011;18524;45.190;5.732;2023-02-03T16:49:03;9.43;;;6.20;;
15669;SDS011;18524;45.190;5.732;2023-02-03T16:54:12;10.63;;;5.90;;
15669;SDS011;18524;45.190;5.732;2023-02-03T16:59:03;10.50;;;6.00;;
15669;SDS011;18524;45.190;5.732;2023-02-03T17:03:54;10.03;;;6.40;;
15669;SDS011;18524;45.190;5.732;2023-02-03T17:08:44;11.37;;;7.23;;
15669;SDS011;18524;45.190;5.732;2023-02-03T17:13:35;11.33;;;7.80;;
15669;SDS011;18524;45.190;5.732;2023-02-03T17:18:25;11.77;;;7.50;;
15669;SDS011;18524;45.190;5.732;2023-02-03T17:23:16;6.13;;;4.07;;
15669;SDS011;18524;45.190;5.732;2023-02-03T17:28:07;7.10;;;4.23;;
15669;SDS011;18524;45.190;5.732;2023-02-03T17:32:58;8.87;;;4.90;;
15669;SDS011;18524;45.190;5.732;2023-02-03T17:37:53;11.97;;;6.67;;
15669;SDS011;18524;45.190;5.732;2023-02-03T17:42:43;7.10;;;4.33;;
15669;SDS011;18524;45.190;5.732;2023-02-03T17:47:34;5.30;;;3.47;;
15669;SDS011;18524;45.190;5.732;2023-02-03T17:52:24;4.43;;;2.73;;
15669;SDS011;18524;45.190;5.732;2023-02-03T17:57:14;5.83;;;3.10;;
15669;SDS011;18524;45.190;5.732;2023-02-03T18:02:05;4.17;;;2.77;;
15669;SDS011;18524;45.190;5.732;2023-02-03T18:06:56;5.27;;;3.20;;
15669;SDS011;18524;45.190;5.732;2023-02-03T18:11:46;7.37;;;3.43;;
15669;SDS011;18524;45.190;5.732;2023-02-03T18:16:36;6.87;;;3.80;;
15669;SDS011;18524;45.190;5.732;2023-02-03T18:21:27;5.03;;;3.33;;
15669;SDS011;18524;45.190;5.732;2023-02-03T18:26:18;6.53;;;3.63;;
15669;SDS011;18524;45.190;5.732;2023-02-03T18:31:10;6.47;;;4.07;;
15669;SDS011;18524;45.190;5.732;2023-02-03T18:36:04;5.67;;;3.43;;
15669;SDS011;18524;45.190;5.732;2023-02-03T18:40:55;4.80;;;3.67;;
15669;SDS011;18524;45.190;5.732;2023-02-03T18:45:47;8.50;;;3.90;;
15669;SDS011;18524;45.190;5.732;2023-02-03T18:50:41;7.80;;;4.73;;
15669;SDS011;18524;45.190;5.732;2023-02-03T18:55:32;8.07;;;4.40;;
15669;SDS011;18524;45.190;5.732;2023-02-03T19:00:23;7.93;;;4.20;;
15669;SDS011;18524;45.190;5.732;2023-02-03T19:05:13;5.40;;;4.20;;
15669;SDS011;18524;45.190;5.732;2023-02-03T19:10:04;5.87;;;3.70;;
15669;SDS011;18524;45.190;5.732;2023-02-03T19:14:54;6.07;;;4.30;;
15669;SDS011;18524;45.190;5.732;2023-02-03T19:19:45;7.60;;;4.23;;
15669;SDS011;18524;45.190;5.732;2023-02-03T19:24:35;4.60;;;3.67;;
15669;SDS011;18524;45.190;5.732;2023-02-03T19:29:25;5.13;;;3.97;;
15669;SDS011;18524;45.190;5.732;2023-02-03T19:34:16;5.90;;;3.83;;
15669;SDS011;18524;45.190;5.732;2023-02-03T19:39:06;4.53;;;3.50;;
15669;SDS011;18524;45.190;5.732;2023-02-03T19:43:57;6.37;;;4.13;;
15669;SDS011;18524;45.190;5.732;2023-02-03T19:48:47;6.27;;;3.90;;
15669;SDS011;18524;45.190;5.732;2023-02-03T19:53:39;4.87;;;3.33;;
15669;SDS011;18524;45.190;5.732;2023-02-03T19:58:29;5.43;;;3.50;;
15669;SDS011;18524;45.190;5.732;2023-02-03T20:03:20;5.33;;;4.07;;
15669;SDS011;18524;45.190;5.732;2023-02-03T20:08:11;6.13;;;3.90;;
15669;SDS011;18524;45.190;5.732;2023-02-03T20:13:03;5.13;;;3.93;;
15669;SDS011;18524;45.190;5.732;2023-02-03T20:17:54;6.97;;;4.57;;
15669;SDS011;18524;45.190;5.732;2023-02-03T20:22:45;6.00;;;4.13;;
15669;SDS011;18524;45.190;5.732;2023-02-03T20:27:35;5.07;;;4.00;;
15669;SDS011;18524;45.190;5.732;2023-02-03T20:32:25;10.97;;;7.07;;
15669;SDS011;18524;45.190;5.732;2023-02-03T20:37:16;17.27;;;11.67;;
15669;SDS011;18524;45.190;5.732;2023-02-03T20:42:14;16.20;;;12.70;;
15669;SDS011;18524;45.190;5.732;2023-02-03T20:47:12;19.50;;;12.70;;
15669;SDS011;18524;45.190;5.732;2023-02-03T20:52:13;12.80;;;9.33;;
15669;SDS011;18524;45.190;5.732;2023-02-03T20:57:10;17.70;;;12.30;;
15669;SDS011;18524;45.190;5.732;2023-02-03T21:02:09;19.63;;;13.60;;
15669;SDS011;18524;45.190;5.732;2023-02-03T21:07:11;12.23;;;9.60;;
15669;SDS011;18524;45.190;5.732;2023-02-03T21:12:10;7.93;;;4.50;;
15669;SDS011;18524;45.190;5.732;2023-02-03T21:17:02;8.63;;;6.53;;
15669;SDS011;18524;45.190;5.732;2023-02-03T21:21:52;13.50;;;9.97;;
15669;SDS011;18524;45.190;5.732;2023-02-03T21:26:42;15.53;;;11.07;;
15669;SDS011;18524;45.190;5.732;2023-02-03T21:31:33;12.10;;;7.63;;
15669;SDS011;18524;45.190;5.732;2023-02-03T21:36:26;8.00;;;5.27;;
15669;SDS011;18524;45.190;5.732;2023-02-03T21:41:21;8.23;;;4.67;;
15669;SDS011;18524;45.190;5.732;2023-02-03T21:46:16;6.73;;;4.67;;
15669;SDS011;18524;45.190;5.732;2023-02-03T21:51:17;9.20;;;5.50;;
15669;SDS011;18524;45.190;5.732;2023-02-03T21:56:14;8.23;;;6.60;;
15669;SDS011;18524;45.190;5.732;2023-02-03T22:01:07;7.97;;;6.30;;
15669;SDS011;18524;45.190;5.732;2023-02-03T22:06:02;7.57;;;5.93;;
15669;SDS011;18524;45.190;5.732;2023-02-03T22:11:02;13.97;;;9.07;;
15669;SDS011;18524;45.190;5.732;2023-02-03T22:15:53;14.97;;;11.20;;
15669;SDS011;18524;45.190;5.732;2023-02-03T22:20:43;19.27;;;12.63;;
15669;SDS011;18524;45.190;5.732;2023-02-03T22:25:34;19.10;;;13.07;;
15669;SDS011;18524;45.190;5.732;2023-02-03T22:30:25;18.77;;;13.40;;
15669;SDS011;18524;45.190;5.732;2023-02-03T22:35:16;19.77;;;13.23;;
15669;SDS011;18524;45.190;5.732;2023-02-03T22:40:08;21.33;;;14.47;;
15669;SDS011;18524;45.190;5.732;2023-02-03T22:44:59;20.07;;;14.03;;
15669;SDS011;18524;45.190;5.732;2023-02-03T22:49:50;20.10;;;13.80;;
15669;SDS011;18524;45.190;5.732;2023-02-03T22:54:41;19.80;;;14.53;;
15669;SDS011;18524;45.190;5.732;2023-02-03T22:59:33;18.87;;;12.40;;
15669;SDS011;18524;45.190;5.732;2023-02-03T23:04:24;19.13;;;13.37;;
15669;SDS011;18524;45.190;5.732;2023-02-03T23:09:15;18.90;;;13.20;;
15669;SDS011;18524;45.190;5.732;2023-02-03T23:14:05;18.30;;;12.43;;
15669;SDS011;18524;45.190;5.732;2023-02-03T23:18:56;17.53;;;12.30;;
15669;SDS011;18524;45.190;5.732;2023-02-03T23:23:46;14.23;;;10.67;;
15669;SDS011;18524;45.190;5.732;2023-02-03T23:28:37;15.00;;;10.43;;
15669;SDS011;18524;45.190;5.732;2023-02-03T23:33:27;15.67;;;11.03;;
15669;SDS011;18524;45.190;5.732;2023-02-03T23:38:18;15.93;;;10.37;;
15669;SDS011;18524;45.190;5.732;2023-02-03T23:43:09;10.80;;;8.77;;
15669;SDS011;18524;45.190;5.732;2023-02-03T23:47:59;12.90;;;9.17;;
15669;SDS011;18524;45.190;5.732;2023-02-03T23:52:49;15.50;;;9.97;;
15669;SDS011;18524;45.190;5.732;2023-02-03T23:57:40;12.47;;;9.30;;
